FKH5502 HESH-UZTT
Flight info
| Callsign | FKH5502 |
|---|---|
| Flight time | 4h 35m |
| Altitude | 31000 |
| Route | NOVP2L NOVPA J981 DATOK L550 APLON DCT GENOS DCT VADUS DCT UMDOT UW84 ADA UW74 MILBA UT470 GAZ UW701 ERZ B374 INDUR N449 VETEN N199 EDATA M11 LUSAL N199 RASAM L88 METKA B476 DARVA T898 OGOLI N193 DIBAD DIBA2U |
| Aircraft | B753/M-SDE2E3FGHIJ3J4J7RWXY/LB1 |
Departure
| Time | 2026-04-23 16:09 |
|---|---|
| Airport | Sharm El Sheikh International Airport (HESH) |
Arrival
| Time | 2026-04-23 20:45 |
|---|---|
| Airport | Tashkent International Airport (UZTT) |
| Time | Latitude | Longitude | Altitude | Speed | Heading |
|---|---|---|---|---|---|
| 2026-04-23 15:28 | 27.97656 | 34.38686 | 155 ft | 0 kts | 313° |
| 2026-04-23 15:56 | 27.97655 | 34.38686 | 154 ft | 1 kts | 313° |
| 2026-04-23 15:57 | 27.97645 | 34.38699 | 154 ft | 2 kts | 313° |
| 2026-04-23 15:57 | 27.97634 | 34.38712 | 154 ft | 2 kts | 313° |
| 2026-04-23 15:57 | 27.97624 | 34.38724 | 154 ft | 2 kts | 302° |
| 2026-04-23 15:57 | 27.97619 | 34.38741 | 154 ft | 2 kts | 270° |
| 2026-04-23 15:58 | 27.97622 | 34.38760 | 154 ft | 2 kts | 241° |
| 2026-04-23 15:58 | 27.97632 | 34.38774 | 154 ft | 2 kts | 217° |
| 2026-04-23 15:58 | 27.97644 | 34.38785 | 154 ft | 2 kts | 223° |
| 2026-04-23 15:58 | 27.97655 | 34.38797 | 154 ft | 2 kts | 224° |
| 2026-04-23 15:59 | 27.97660 | 34.38802 | 154 ft | 0 kts | 223° |
| 2026-04-23 16:03 | 27.97652 | 34.38794 | 154 ft | 5 kts | 223° |
| 2026-04-23 16:04 | 27.97605 | 34.38745 | 154 ft | 11 kts | 222° |
| 2026-04-23 16:04 | 27.97532 | 34.38668 | 154 ft | 16 kts | 222° |
| 2026-04-23 16:04 | 27.97433 | 34.38565 | 154 ft | 17 kts | 223° |
| 2026-04-23 16:04 | 27.97347 | 34.38476 | 154 ft | 14 kts | 222° |
| 2026-04-23 16:05 | 27.97300 | 34.38427 | 154 ft | 12 kts | 223° |
| 2026-04-23 16:05 | 27.97224 | 34.38348 | 154 ft | 9 kts | 223° |
| 2026-04-23 16:05 | 27.97183 | 34.38305 | 154 ft | 6 kts | 222° |
| 2026-04-23 16:05 | 27.97151 | 34.38271 | 154 ft | 6 kts | 223° |
| 2026-04-23 16:06 | 27.97114 | 34.38231 | 154 ft | 7 kts | 223° |
| 2026-04-23 16:06 | 27.97071 | 34.38186 | 154 ft | 8 kts | 221° |
| 2026-04-23 16:06 | 27.97024 | 34.38138 | 154 ft | 9 kts | 215° |
| 2026-04-23 16:06 | 27.96964 | 34.38144 | 154 ft | 9 kts | 138° |
| 2026-04-23 16:07 | 27.96918 | 34.38198 | 154 ft | 10 kts | 134° |
| 2026-04-23 16:07 | 27.96883 | 34.38264 | 154 ft | 9 kts | 82° |
| 2026-04-23 16:07 | 27.96921 | 34.38330 | 154 ft | 9 kts | 45° |
| 2026-04-23 16:07 | 27.96946 | 34.38356 | 154 ft | 3 kts | 43° |
| 2026-04-23 16:08 | 27.96970 | 34.38381 | 154 ft | 9 kts | 43° |
| 2026-04-23 16:08 | 27.97141 | 34.38559 | 154 ft | 59 kts | 43° |
| 2026-04-23 16:08 | 27.97572 | 34.39012 | 154 ft | 109 kts | 42° |
| 2026-04-23 16:08 | 27.98252 | 34.39724 | 155 ft | 156 kts | 42° |
| 2026-04-23 16:09 | 27.99141 | 34.40652 | 422 ft | 182 kts | 41° |
| 2026-04-23 16:09 | 28.00217 | 34.41442 | 803 ft | 196 kts | 21° |
| 2026-04-23 16:09 | 28.01463 | 34.42024 | 1464 ft | 191 kts | 18° |
| 2026-04-23 16:09 | 28.02730 | 34.42593 | 1646 ft | 203 kts | 20° |
| 2026-04-23 16:10 | 28.04090 | 34.43279 | 1630 ft | 228 kts | 22° |
| 2026-04-23 16:10 | 28.05545 | 34.44075 | 2063 ft | 235 kts | 24° |
| 2026-04-23 16:10 | 28.07040 | 34.44917 | 2316 ft | 253 kts | 24° |
| 2026-04-23 16:10 | 28.08644 | 34.45841 | 2932 ft | 256 kts | 25° |
| 2026-04-23 16:11 | 28.10214 | 34.46755 | 3548 ft | 258 kts | 25° |
| 2026-04-23 16:11 | 28.11819 | 34.47692 | 4147 ft | 261 kts | 24° |
| 2026-04-23 16:11 | 28.13518 | 34.48293 | 4731 ft | 260 kts | 2° |
| 2026-04-23 16:11 | 28.15312 | 34.48353 | 5315 ft | 262 kts | 358° |
| 2026-04-23 16:12 | 28.17130 | 34.48395 | 5929 ft | 264 kts | 358° |
| 2026-04-23 16:12 | 28.19012 | 34.48434 | 6238 ft | 280 kts | 358° |
| 2026-04-23 16:12 | 28.20969 | 34.48470 | 6834 ft | 283 kts | 358° |
| 2026-04-23 16:12 | 28.22938 | 34.48568 | 7479 ft | 287 kts | 6° |
| 2026-04-23 16:13 | 28.24900 | 34.48989 | 8058 ft | 291 kts | 9° |
| 2026-04-23 16:13 | 28.28884 | 34.49897 | 9277 ft | 297 kts | 9° |
| 2026-04-23 16:13 | 28.30889 | 34.50356 | 9871 ft | 300 kts | 9° |
| 2026-04-23 16:14 | 28.32967 | 34.50832 | 10144 ft | 316 kts | 9° |
| 2026-04-23 16:14 | 28.35198 | 34.51342 | 10177 ft | 340 kts | 9° |
| 2026-04-23 16:14 | 28.37560 | 34.51887 | 10757 ft | 345 kts | 9° |
| 2026-04-23 16:14 | 28.39888 | 34.52425 | 11427 ft | 347 kts | 9° |
| 2026-04-23 16:15 | 28.42266 | 34.52973 | 12005 ft | 352 kts | 9° |
| 2026-04-23 16:15 | 28.44659 | 34.53525 | 12631 ft | 355 kts | 9° |
| 2026-04-23 16:15 | 28.47068 | 34.54081 | 13210 ft | 358 kts | 9° |
| 2026-04-23 16:15 | 28.49536 | 34.54651 | 13814 ft | 362 kts | 8° |
| 2026-04-23 16:16 | 28.51988 | 34.55217 | 14398 ft | 365 kts | 8° |
| 2026-04-23 16:16 | 28.54476 | 34.55792 | 14986 ft | 368 kts | 8° |
| 2026-04-23 16:16 | 28.56980 | 34.56370 | 15567 ft | 371 kts | 8° |
| 2026-04-23 16:16 | 28.59512 | 34.56956 | 16142 ft | 374 kts | 8° |
| 2026-04-23 16:17 | 28.62058 | 34.57545 | 16701 ft | 377 kts | 8° |
| 2026-04-23 16:17 | 28.64633 | 34.58141 | 17253 ft | 380 kts | 7° |
| 2026-04-23 16:17 | 28.67242 | 34.58745 | 17781 ft | 384 kts | 7° |
| 2026-04-23 16:17 | 28.69832 | 34.59345 | 18292 ft | 387 kts | 7° |
| 2026-04-23 16:18 | 28.72502 | 34.59964 | 18808 ft | 390 kts | 7° |
| 2026-04-23 16:18 | 28.75133 | 34.60574 | 19297 ft | 393 kts | 7° |
| 2026-04-23 16:18 | 28.77816 | 34.61196 | 19789 ft | 396 kts | 7° |
| 2026-04-23 16:18 | 28.80534 | 34.61827 | 20273 ft | 399 kts | 7° |
| 2026-04-23 16:19 | 28.83226 | 34.62453 | 20748 ft | 401 kts | 6° |
| 2026-04-23 16:19 | 28.85978 | 34.63092 | 21222 ft | 404 kts | 6° |
| 2026-04-23 16:19 | 28.88715 | 34.63729 | 21680 ft | 407 kts | 6° |
| 2026-04-23 16:19 | 28.91504 | 34.64377 | 21845 ft | 414 kts | 6° |
| 2026-04-23 16:20 | 28.94348 | 34.65041 | 21832 ft | 410 kts | 7° |
| 2026-04-23 16:20 | 28.97112 | 34.65687 | 21825 ft | 406 kts | 6° |
| 2026-04-23 16:20 | 28.99877 | 34.66223 | 21842 ft | 407 kts | 358° |
| 2026-04-23 16:20 | 29.02675 | 34.66123 | 22340 ft | 398 kts | 346° |
| 2026-04-23 16:21 | 29.05303 | 34.65447 | 22833 ft | 392 kts | 335° |
| 2026-04-23 16:21 | 29.07797 | 34.64200 | 23227 ft | 387 kts | 324° |
| 2026-04-23 16:21 | 29.09980 | 34.62485 | 23731 ft | 381 kts | 317° |
| 2026-04-23 16:21 | 29.12093 | 34.60657 | 24174 ft | 383 kts | 318° |
| 2026-04-23 16:22 | 29.14271 | 34.58890 | 24587 ft | 386 kts | 319° |
| 2026-04-23 16:22 | 29.16487 | 34.57143 | 25018 ft | 388 kts | 320° |
| 2026-04-23 16:22 | 29.18711 | 34.55416 | 25414 ft | 390 kts | 320° |
| 2026-04-23 16:22 | 29.20962 | 34.53685 | 25806 ft | 391 kts | 320° |
| 2026-04-23 16:23 | 29.23220 | 34.51955 | 26192 ft | 393 kts | 320° |
| 2026-04-23 16:23 | 29.25464 | 34.50241 | 26570 ft | 394 kts | 320° |
| 2026-04-23 16:23 | 29.27739 | 34.48505 | 26952 ft | 395 kts | 320° |
| 2026-04-23 16:23 | 29.30025 | 34.46763 | 27309 ft | 397 kts | 320° |
| 2026-04-23 16:24 | 29.32325 | 34.45009 | 27673 ft | 398 kts | 320° |
| 2026-04-23 16:24 | 29.34633 | 34.43249 | 28020 ft | 399 kts | 320° |
| 2026-04-23 16:24 | 29.36957 | 34.41475 | 28299 ft | 402 kts | 320° |
| 2026-04-23 16:24 | 29.39250 | 34.39725 | 28677 ft | 402 kts | 320° |
| 2026-04-23 16:25 | 29.41586 | 34.37941 | 28996 ft | 403 kts | 319° |
| 2026-04-23 16:25 | 29.43920 | 34.36157 | 29317 ft | 404 kts | 319° |
| 2026-04-23 16:25 | 29.46245 | 34.34380 | 29619 ft | 406 kts | 319° |
| 2026-04-23 16:25 | 29.48577 | 34.32597 | 29971 ft | 406 kts | 319° |
| 2026-04-23 16:26 | 29.50930 | 34.30795 | 30274 ft | 408 kts | 319° |
| 2026-04-23 16:26 | 29.53291 | 34.28987 | 30583 ft | 409 kts | 319° |
| 2026-04-23 16:26 | 29.55641 | 34.27186 | 30851 ft | 411 kts | 319° |
| 2026-04-23 16:26 | 29.58028 | 34.25357 | 31186 ft | 411 kts | 319° |
| 2026-04-23 16:27 | 29.60387 | 34.23580 | 31559 ft | 412 kts | 321° |
| 2026-04-23 16:27 | 29.62899 | 34.21999 | 31958 ft | 413 kts | 324° |
| 2026-04-23 16:27 | 29.65437 | 34.20456 | 32333 ft | 411 kts | 323° |
| 2026-04-23 16:27 | 29.67958 | 34.18916 | 32683 ft | 410 kts | 323° |
| 2026-04-23 16:28 | 29.70432 | 34.17407 | 33025 ft | 408 kts | 323° |
| 2026-04-23 16:28 | 29.72923 | 34.15889 | 33418 ft | 405 kts | 323° |
| 2026-04-23 16:28 | 29.75420 | 34.14368 | 33763 ft | 403 kts | 323° |
| 2026-04-23 16:28 | 29.77855 | 34.12883 | 34045 ft | 402 kts | 323° |
| 2026-04-23 16:29 | 29.80320 | 34.11379 | 34329 ft | 401 kts | 323° |
| 2026-04-23 16:29 | 29.82781 | 34.09876 | 34540 ft | 401 kts | 323° |
| 2026-04-23 16:29 | 29.85242 | 34.08374 | 34806 ft | 400 kts | 323° |
| 2026-04-23 16:29 | 29.87675 | 34.06887 | 34831 ft | 401 kts | 323° |
| 2026-04-23 16:30 | 29.92593 | 34.03882 | 34829 ft | 399 kts | 323° |
| 2026-04-23 16:30 | 29.97465 | 34.00901 | 34830 ft | 399 kts | 323° |
| 2026-04-23 16:31 | 30.02370 | 33.97896 | 34829 ft | 398 kts | 323° |
| 2026-04-23 16:31 | 30.07223 | 33.94920 | 34828 ft | 398 kts | 323° |
| 2026-04-23 16:32 | 30.12135 | 33.91904 | 34829 ft | 398 kts | 323° |
| 2026-04-23 16:32 | 30.16999 | 33.88914 | 34830 ft | 399 kts | 323° |
| 2026-04-23 16:33 | 30.21871 | 33.85917 | 34829 ft | 399 kts | 323° |
| 2026-04-23 16:33 | 30.26747 | 33.82914 | 34827 ft | 398 kts | 323° |
| 2026-04-23 16:34 | 30.31647 | 33.79891 | 34827 ft | 400 kts | 323° |
| 2026-04-23 16:34 | 30.36515 | 33.76887 | 34825 ft | 398 kts | 323° |
| 2026-04-23 16:35 | 30.41375 | 33.73882 | 34826 ft | 399 kts | 323° |
| 2026-04-23 16:35 | 30.46244 | 33.70869 | 34824 ft | 398 kts | 323° |
| 2026-04-23 16:36 | 30.51121 | 33.67848 | 34825 ft | 399 kts | 323° |
| 2026-04-23 16:36 | 30.55996 | 33.64825 | 34824 ft | 399 kts | 323° |
| 2026-04-23 16:37 | 30.60869 | 33.61798 | 34823 ft | 399 kts | 323° |
| 2026-04-23 16:37 | 30.65766 | 33.58754 | 34822 ft | 399 kts | 323° |
| 2026-04-23 16:38 | 30.70607 | 33.55741 | 34823 ft | 399 kts | 323° |
| 2026-04-23 16:38 | 30.75478 | 33.52707 | 34836 ft | 398 kts | 323° |
| 2026-04-23 16:39 | 30.80346 | 33.49669 | 34869 ft | 399 kts | 323° |
| 2026-04-23 16:39 | 30.85229 | 33.46620 | 34916 ft | 397 kts | 323° |
| 2026-04-23 16:40 | 30.90061 | 33.43599 | 34928 ft | 398 kts | 323° |
| 2026-04-23 16:40 | 30.94927 | 33.40554 | 34927 ft | 397 kts | 322° |
| 2026-04-23 16:41 | 30.99755 | 33.37529 | 34926 ft | 397 kts | 322° |
| 2026-04-23 16:41 | 31.04624 | 33.34473 | 34935 ft | 397 kts | 321° |
| 2026-04-23 16:42 | 31.09445 | 33.31444 | 34946 ft | 396 kts | 321° |
| 2026-04-23 16:42 | 31.14290 | 33.28397 | 34945 ft | 397 kts | 321° |
| 2026-04-23 16:43 | 31.19141 | 33.25343 | 34943 ft | 396 kts | 321° |
| 2026-04-23 16:43 | 31.21651 | 33.24019 | 34951 ft | 407 kts | 330° |
| 2026-04-23 16:43 | 31.24437 | 33.23196 | 34957 ft | 423 kts | 340° |
| 2026-04-23 16:44 | 31.27426 | 33.22945 | 34957 ft | 439 kts | 350° |
| 2026-04-23 16:44 | 31.30509 | 33.23303 | 34955 ft | 453 kts | 360° |
| 2026-04-23 16:44 | 31.33560 | 33.24265 | 34956 ft | 467 kts | 9° |
| 2026-04-23 16:44 | 31.36566 | 33.25845 | 34955 ft | 482 kts | 19° |
| 2026-04-23 16:45 | 31.39373 | 33.27985 | 34959 ft | 495 kts | 29° |
| 2026-04-23 16:45 | 31.41975 | 33.30704 | 34957 ft | 505 kts | 39° |
| 2026-04-23 16:45 | 31.46124 | 33.37455 | 34957 ft | 520 kts | 54° |
| 2026-04-23 16:46 | 31.49894 | 33.44616 | 34955 ft | 511 kts | 44° |
| 2026-04-23 16:46 | 31.54884 | 33.50235 | 34962 ft | 491 kts | 25° |
| 2026-04-23 16:47 | 31.60691 | 33.54167 | 34950 ft | 483 kts | 19° |
| 2026-04-23 16:47 | 31.66454 | 33.58030 | 34949 ft | 482 kts | 20° |
| 2026-04-23 16:48 | 31.72252 | 33.61977 | 34951 ft | 484 kts | 20° |
| 2026-04-23 16:48 | 31.78040 | 33.65944 | 34937 ft | 484 kts | 20° |
| 2026-04-23 16:49 | 31.83855 | 33.69937 | 34934 ft | 484 kts | 20° |
| 2026-04-23 16:49 | 31.89635 | 33.73914 | 34934 ft | 484 kts | 20° |
| 2026-04-23 16:50 | 31.95424 | 33.77903 | 34933 ft | 484 kts | 20° |
| 2026-04-23 16:50 | 32.01230 | 33.81910 | 34936 ft | 484 kts | 20° |
| 2026-04-23 16:51 | 32.07015 | 33.85908 | 34937 ft | 484 kts | 20° |
| 2026-04-23 16:51 | 32.12797 | 33.89912 | 34936 ft | 483 kts | 20° |
| 2026-04-23 16:52 | 32.18582 | 33.93921 | 34939 ft | 485 kts | 20° |
| 2026-04-23 16:52 | 32.24352 | 33.97928 | 34937 ft | 484 kts | 20° |
| 2026-04-23 16:53 | 32.30130 | 34.01944 | 34939 ft | 484 kts | 20° |
| 2026-04-23 16:53 | 32.35936 | 34.05987 | 34941 ft | 485 kts | 20° |
| 2026-04-23 16:54 | 32.41709 | 34.10014 | 34939 ft | 483 kts | 20° |
| 2026-04-23 16:54 | 32.47490 | 34.14051 | 34941 ft | 484 kts | 20° |
| 2026-04-23 16:55 | 32.53272 | 34.18096 | 34942 ft | 484 kts | 20° |
| 2026-04-23 16:55 | 32.59048 | 34.22141 | 34944 ft | 485 kts | 20° |
| 2026-04-23 16:56 | 32.64797 | 34.26177 | 34942 ft | 483 kts | 20° |
| 2026-04-23 16:56 | 32.70601 | 34.30254 | 34946 ft | 485 kts | 20° |
| 2026-04-23 16:57 | 32.76369 | 34.34314 | 34945 ft | 484 kts | 20° |
| 2026-04-23 16:57 | 32.82157 | 34.38394 | 34944 ft | 484 kts | 20° |
| 2026-04-23 16:58 | 32.87934 | 34.42471 | 34948 ft | 485 kts | 20° |
| 2026-04-23 16:58 | 32.93690 | 34.46542 | 34948 ft | 483 kts | 20° |
| 2026-04-23 16:59 | 32.99448 | 34.50615 | 34949 ft | 485 kts | 21° |
| 2026-04-23 16:59 | 33.05217 | 34.54704 | 34948 ft | 484 kts | 23° |
| 2026-04-23 17:00 | 33.10979 | 34.58796 | 34948 ft | 483 kts | 24° |
| 2026-04-23 17:00 | 33.16721 | 34.62884 | 34947 ft | 481 kts | 24° |
| 2026-04-23 17:01 | 33.22439 | 34.66958 | 34932 ft | 483 kts | 25° |
| 2026-04-23 17:01 | 33.28170 | 34.71048 | 34932 ft | 482 kts | 25° |
| 2026-04-23 17:02 | 33.33929 | 34.75165 | 34932 ft | 481 kts | 25° |
| 2026-04-23 17:02 | 33.39643 | 34.79255 | 34935 ft | 482 kts | 25° |
| 2026-04-23 17:03 | 33.45399 | 34.83379 | 34938 ft | 482 kts | 25° |
| 2026-04-23 17:03 | 33.51120 | 34.87487 | 34934 ft | 481 kts | 25° |
| 2026-04-23 17:04 | 33.56849 | 34.91607 | 34941 ft | 481 kts | 26° |
| 2026-04-23 17:04 | 33.62561 | 34.95721 | 34939 ft | 480 kts | 26° |
| 2026-04-23 17:05 | 33.68248 | 34.99823 | 34936 ft | 480 kts | 26° |
| 2026-04-23 17:05 | 33.73958 | 35.03949 | 34939 ft | 478 kts | 27° |
| 2026-04-23 17:06 | 33.79624 | 35.08050 | 34942 ft | 478 kts | 27° |
| 2026-04-23 17:06 | 33.85283 | 35.12151 | 34941 ft | 479 kts | 27° |
| 2026-04-23 17:07 | 33.90975 | 35.16283 | 34942 ft | 479 kts | 27° |
| 2026-04-23 17:07 | 33.96654 | 35.20413 | 34944 ft | 477 kts | 27° |
| 2026-04-23 17:08 | 34.02321 | 35.24539 | 34945 ft | 479 kts | 27° |
| 2026-04-23 17:08 | 34.07978 | 35.28664 | 34945 ft | 478 kts | 27° |
| 2026-04-23 17:09 | 34.13680 | 35.32830 | 34937 ft | 478 kts | 27° |
| 2026-04-23 17:09 | 34.19305 | 35.36946 | 34942 ft | 478 kts | 27° |
| 2026-04-23 17:10 | 34.24995 | 35.41116 | 34943 ft | 479 kts | 27° |
| 2026-04-23 17:10 | 34.30669 | 35.45281 | 34946 ft | 479 kts | 27° |
| 2026-04-23 17:11 | 34.36332 | 35.49443 | 34942 ft | 479 kts | 27° |
| 2026-04-23 17:11 | 34.42020 | 35.53632 | 34942 ft | 478 kts | 27° |
| 2026-04-23 17:12 | 34.47660 | 35.57791 | 34945 ft | 479 kts | 27° |
| 2026-04-23 17:12 | 34.53319 | 35.61972 | 34946 ft | 479 kts | 27° |
| 2026-04-23 17:13 | 34.59019 | 35.66190 | 34934 ft | 479 kts | 27° |
| 2026-04-23 17:13 | 34.64681 | 35.70385 | 34937 ft | 480 kts | 27° |
| 2026-04-23 17:14 | 34.70354 | 35.74597 | 34937 ft | 478 kts | 27° |
| 2026-04-23 17:14 | 34.76017 | 35.78807 | 34936 ft | 479 kts | 27° |
| 2026-04-23 17:15 | 34.81678 | 35.83023 | 34924 ft | 480 kts | 27° |
| 2026-04-23 17:15 | 34.87327 | 35.87237 | 34915 ft | 478 kts | 27° |
| 2026-04-23 17:16 | 34.92968 | 35.91450 | 34913 ft | 480 kts | 28° |
| 2026-04-23 17:16 | 34.98662 | 35.95710 | 34912 ft | 479 kts | 29° |
| 2026-04-23 17:17 | 35.04319 | 35.99951 | 34917 ft | 479 kts | 29° |
| 2026-04-23 17:17 | 35.09949 | 36.04180 | 34916 ft | 478 kts | 29° |
| 2026-04-23 17:18 | 35.18409 | 36.10547 | 34909 ft | 478 kts | 29° |
| 2026-04-23 17:19 | 35.24076 | 36.14820 | 34909 ft | 479 kts | 30° |
| 2026-04-23 17:19 | 35.29711 | 36.19076 | 34910 ft | 478 kts | 29° |
| 2026-04-23 17:20 | 35.35373 | 36.23358 | 34911 ft | 479 kts | 29° |
| 2026-04-23 17:21 | 35.46651 | 36.31911 | 34916 ft | 478 kts | 29° |
| 2026-04-23 17:21 | 35.55101 | 36.38338 | 34915 ft | 479 kts | 30° |
| 2026-04-23 17:22 | 35.63517 | 36.44755 | 34915 ft | 478 kts | 29° |
| 2026-04-23 17:23 | 35.71969 | 36.51216 | 34914 ft | 478 kts | 29° |
| 2026-04-23 17:24 | 35.80422 | 36.57694 | 34917 ft | 478 kts | 29° |
| 2026-04-23 17:24 | 35.88845 | 36.64166 | 34918 ft | 478 kts | 29° |
| 2026-04-23 17:25 | 35.97278 | 36.70660 | 34911 ft | 478 kts | 30° |
| 2026-04-23 17:26 | 36.08532 | 36.79355 | 34914 ft | 479 kts | 30° |
| 2026-04-23 17:27 | 36.16991 | 36.85910 | 34907 ft | 479 kts | 30° |
| 2026-04-23 17:27 | 36.22587 | 36.90255 | 34906 ft | 478 kts | 30° |
| 2026-04-23 17:28 | 36.28226 | 36.94641 | 34911 ft | 479 kts | 30° |
| 2026-04-23 17:28 | 36.33832 | 36.99010 | 34914 ft | 478 kts | 30° |
| 2026-04-23 17:29 | 36.39420 | 37.03372 | 34918 ft | 476 kts | 30° |
| 2026-04-23 17:30 | 36.46845 | 37.09179 | 34926 ft | 474 kts | 30° |
| 2026-04-23 17:30 | 36.56093 | 37.16431 | 34935 ft | 472 kts | 30° |
| 2026-04-23 17:31 | 36.61599 | 37.20758 | 34942 ft | 471 kts | 30° |
| 2026-04-23 17:31 | 36.67126 | 37.25109 | 34943 ft | 471 kts | 30° |
| 2026-04-23 17:32 | 36.72660 | 37.29474 | 34944 ft | 471 kts | 30° |
| 2026-04-23 17:32 | 36.78148 | 37.33809 | 34940 ft | 471 kts | 29° |
| 2026-04-23 17:33 | 36.83653 | 37.38166 | 34943 ft | 471 kts | 30° |
| 2026-04-23 17:33 | 36.89044 | 37.42440 | 34939 ft | 471 kts | 30° |
| 2026-04-23 17:34 | 36.94504 | 37.46816 | 34942 ft | 472 kts | 33° |
| 2026-04-23 17:35 | 37.02371 | 37.54278 | 34944 ft | 477 kts | 35° |
| 2026-04-23 17:35 | 37.10263 | 37.61900 | 34944 ft | 483 kts | 36° |
| 2026-04-23 17:36 | 37.15597 | 37.67086 | 34932 ft | 485 kts | 37° |
| 2026-04-23 17:36 | 37.20872 | 37.72257 | 34935 ft | 484 kts | 37° |
| 2026-04-23 17:37 | 37.26156 | 37.77445 | 34938 ft | 485 kts | 37° |
| 2026-04-23 17:38 | 37.34084 | 37.85289 | 34938 ft | 485 kts | 41° |
| 2026-04-23 17:38 | 37.38425 | 37.91687 | 34950 ft | 483 kts | 60° |
| 2026-04-23 17:39 | 37.41346 | 37.99270 | 34938 ft | 484 kts | 64° |
| 2026-04-23 17:39 | 37.44710 | 38.06655 | 34944 ft | 494 kts | 59° |
| 2026-04-23 17:40 | 37.48395 | 38.14016 | 34930 ft | 496 kts | 58° |
| 2026-04-23 17:40 | 37.51268 | 38.19630 | 34915 ft | 496 kts | 58° |
| 2026-04-23 17:41 | 37.54937 | 38.26760 | 34899 ft | 496 kts | 58° |
| 2026-04-23 17:41 | 37.60561 | 38.37682 | 34886 ft | 495 kts | 57° |
| 2026-04-23 17:42 | 37.66164 | 38.48589 | 34890 ft | 496 kts | 58° |
| 2026-04-23 17:43 | 37.69886 | 38.55856 | 34891 ft | 496 kts | 58° |
| 2026-04-23 17:43 | 37.73623 | 38.63166 | 34890 ft | 496 kts | 57° |
| 2026-04-23 17:44 | 37.77359 | 38.70488 | 34893 ft | 495 kts | 58° |
| 2026-04-23 17:44 | 37.82918 | 38.81419 | 34904 ft | 496 kts | 58° |
| 2026-04-23 17:45 | 37.88503 | 38.92435 | 34914 ft | 495 kts | 58° |
| 2026-04-23 17:46 | 37.94040 | 39.03396 | 34915 ft | 495 kts | 57° |
| 2026-04-23 17:46 | 37.97738 | 39.10737 | 34914 ft | 494 kts | 57° |
| 2026-04-23 17:47 | 38.01411 | 39.18042 | 34916 ft | 494 kts | 57° |
| 2026-04-23 17:48 | 38.06940 | 39.29069 | 34918 ft | 494 kts | 57° |
| 2026-04-23 17:48 | 38.10595 | 39.36381 | 34911 ft | 494 kts | 57° |
| 2026-04-23 17:49 | 38.14278 | 39.43764 | 34917 ft | 494 kts | 57° |
| 2026-04-23 17:49 | 38.17947 | 39.51134 | 34912 ft | 494 kts | 57° |
| 2026-04-23 17:50 | 38.21589 | 39.58471 | 34917 ft | 495 kts | 57° |
| 2026-04-23 17:50 | 38.27078 | 39.69555 | 34916 ft | 494 kts | 57° |
| 2026-04-23 17:51 | 38.30724 | 39.76942 | 34920 ft | 495 kts | 57° |
| 2026-04-23 17:52 | 38.36181 | 39.88027 | 34917 ft | 494 kts | 57° |
| 2026-04-23 17:52 | 38.41631 | 39.99133 | 34929 ft | 493 kts | 57° |
| 2026-04-23 17:53 | 38.47081 | 40.10279 | 34937 ft | 495 kts | 58° |
| 2026-04-23 17:54 | 38.50692 | 40.17685 | 34941 ft | 494 kts | 58° |
| 2026-04-23 17:54 | 38.56114 | 40.28839 | 34943 ft | 494 kts | 57° |
| 2026-04-23 17:55 | 38.61507 | 40.39968 | 34942 ft | 494 kts | 58° |
| 2026-04-23 17:56 | 38.65128 | 40.47465 | 34942 ft | 494 kts | 57° |
| 2026-04-23 17:56 | 38.70497 | 40.58612 | 34943 ft | 495 kts | 58° |
| 2026-04-23 17:57 | 38.74107 | 40.66129 | 34941 ft | 493 kts | 58° |
| 2026-04-23 17:58 | 38.79473 | 40.77333 | 34940 ft | 495 kts | 58° |
| 2026-04-23 17:58 | 38.83055 | 40.84834 | 34939 ft | 495 kts | 58° |
| 2026-04-23 17:59 | 38.86644 | 40.92370 | 34942 ft | 499 kts | 58° |
| 2026-04-23 17:59 | 38.90267 | 40.99991 | 34941 ft | 502 kts | 58° |
| 2026-04-23 18:00 | 38.93900 | 41.07657 | 34940 ft | 505 kts | 58° |
| 2026-04-23 18:00 | 38.97535 | 41.15344 | 34944 ft | 504 kts | 58° |
| 2026-04-23 18:01 | 39.01186 | 41.23082 | 34948 ft | 504 kts | 58° |
| 2026-04-23 18:01 | 39.04821 | 41.30803 | 34946 ft | 507 kts | 58° |
| 2026-04-23 18:02 | 39.07852 | 41.37259 | 34942 ft | 505 kts | 58° |
| 2026-04-23 18:02 | 39.12270 | 41.46689 | 34947 ft | 506 kts | 58° |
| 2026-04-23 18:03 | 39.15905 | 41.54469 | 34938 ft | 507 kts | 58° |
| 2026-04-23 18:03 | 39.19587 | 41.62369 | 34950 ft | 507 kts | 58° |
| 2026-04-23 18:04 | 39.23456 | 41.70694 | 34946 ft | 505 kts | 59° |
| 2026-04-23 18:04 | 39.27093 | 41.78538 | 34961 ft | 506 kts | 58° |
| 2026-04-23 18:05 | 39.31043 | 41.87081 | 34968 ft | 506 kts | 58° |
| 2026-04-23 18:05 | 39.34736 | 41.95084 | 34961 ft | 505 kts | 59° |
| 2026-04-23 18:06 | 39.38322 | 42.02881 | 34970 ft | 506 kts | 59° |
| 2026-04-23 18:06 | 39.42166 | 42.11257 | 34965 ft | 507 kts | 59° |
| 2026-04-23 18:07 | 39.46122 | 42.19900 | 34970 ft | 505 kts | 59° |
| 2026-04-23 18:07 | 39.49948 | 42.28286 | 34964 ft | 507 kts | 59° |
| 2026-04-23 18:08 | 39.53083 | 42.35170 | 34963 ft | 505 kts | 59° |
| 2026-04-23 18:08 | 39.57377 | 42.44627 | 34968 ft | 507 kts | 59° |
| 2026-04-23 18:09 | 39.61032 | 42.52695 | 34970 ft | 507 kts | 58° |
| 2026-04-23 18:09 | 39.64724 | 42.60873 | 34966 ft | 505 kts | 59° |
| 2026-04-23 18:10 | 39.68269 | 42.68737 | 34960 ft | 506 kts | 60° |
| 2026-04-23 18:10 | 39.71805 | 42.76612 | 34968 ft | 505 kts | 59° |
| 2026-04-23 18:11 | 39.75335 | 42.84480 | 34962 ft | 505 kts | 59° |
| 2026-04-23 18:11 | 39.78860 | 42.92370 | 34967 ft | 508 kts | 59° |
| 2026-04-23 18:12 | 39.82372 | 43.00246 | 34979 ft | 506 kts | 59° |
| 2026-04-23 18:12 | 39.85970 | 43.08341 | 34996 ft | 509 kts | 58° |
| 2026-04-23 18:13 | 39.89532 | 43.16365 | 34995 ft | 511 kts | 58° |
| 2026-04-23 18:13 | 39.93100 | 43.24428 | 34992 ft | 513 kts | 58° |
| 2026-04-23 18:14 | 39.96658 | 43.32488 | 34962 ft | 512 kts | 58° |
| 2026-04-23 18:14 | 40.00199 | 43.40532 | 34921 ft | 511 kts | 58° |
| 2026-04-23 18:15 | 40.03831 | 43.48806 | 34889 ft | 511 kts | 58° |
| 2026-04-23 18:15 | 40.07417 | 43.56994 | 34889 ft | 511 kts | 58° |
| 2026-04-23 18:16 | 40.10367 | 43.65494 | 34899 ft | 514 kts | 74° |
| 2026-04-23 18:16 | 40.11464 | 43.74726 | 34874 ft | 512 kts | 88° |
| 2026-04-23 18:17 | 40.11900 | 43.88725 | 34884 ft | 510 kts | 90° |
| 2026-04-23 18:17 | 40.12075 | 43.98207 | 34881 ft | 512 kts | 90° |
| 2026-04-23 18:18 | 40.12223 | 44.07686 | 34871 ft | 511 kts | 91° |
| 2026-04-23 18:18 | 40.12353 | 44.16901 | 34862 ft | 511 kts | 90° |
| 2026-04-23 18:19 | 40.12479 | 44.26208 | 34856 ft | 513 kts | 91° |
| 2026-04-23 18:19 | 40.12595 | 44.35500 | 34865 ft | 509 kts | 91° |
| 2026-04-23 18:20 | 40.12703 | 44.44776 | 34857 ft | 512 kts | 90° |
| 2026-04-23 18:20 | 40.12804 | 44.54108 | 34865 ft | 512 kts | 91° |
| 2026-04-23 18:21 | 40.12899 | 44.63366 | 34869 ft | 512 kts | 91° |
| 2026-04-23 18:21 | 40.12986 | 44.72693 | 34851 ft | 510 kts | 92° |
| 2026-04-23 18:22 | 40.13063 | 44.81942 | 34849 ft | 510 kts | 91° |
| 2026-04-23 18:22 | 40.13134 | 44.91300 | 34853 ft | 511 kts | 91° |
| 2026-04-23 18:23 | 40.13227 | 45.05244 | 34853 ft | 511 kts | 90° |
| 2026-04-23 18:24 | 40.13302 | 45.19103 | 34859 ft | 510 kts | 90° |
| 2026-04-23 18:25 | 40.13361 | 45.32966 | 34860 ft | 510 kts | 90° |
| 2026-04-23 18:25 | 40.13390 | 45.42400 | 34869 ft | 510 kts | 90° |
| 2026-04-23 18:26 | 40.13412 | 45.51855 | 34882 ft | 510 kts | 90° |
| 2026-04-23 18:26 | 40.13427 | 45.61088 | 34890 ft | 509 kts | 90° |
| 2026-04-23 18:27 | 40.13434 | 45.70351 | 34879 ft | 510 kts | 91° |
| 2026-04-23 18:27 | 40.13434 | 45.79570 | 34883 ft | 511 kts | 91° |
| 2026-04-23 18:28 | 40.13449 | 45.88816 | 34883 ft | 510 kts | 88° |
| 2026-04-23 18:28 | 40.14733 | 45.97909 | 34895 ft | 509 kts | 69° |
| 2026-04-23 18:29 | 40.17653 | 46.06233 | 34885 ft | 506 kts | 60° |
| 2026-04-23 18:29 | 40.20872 | 46.14593 | 34888 ft | 505 kts | 60° |
| 2026-04-23 18:30 | 40.24158 | 46.23053 | 34887 ft | 506 kts | 60° |
| 2026-04-23 18:30 | 40.27377 | 46.31341 | 34888 ft | 506 kts | 60° |
| 2026-04-23 18:31 | 40.30550 | 46.39524 | 34867 ft | 505 kts | 60° |
| 2026-04-23 18:31 | 40.33776 | 46.47866 | 34829 ft | 506 kts | 60° |
| 2026-04-23 18:32 | 40.37045 | 46.56346 | 34793 ft | 505 kts | 60° |
| 2026-04-23 18:32 | 40.40215 | 46.64587 | 34783 ft | 506 kts | 60° |
| 2026-04-23 18:33 | 40.43417 | 46.72939 | 34775 ft | 505 kts | 61° |
| 2026-04-23 18:33 | 40.46582 | 46.81215 | 34775 ft | 506 kts | 61° |
| 2026-04-23 18:34 | 40.49743 | 46.89506 | 34775 ft | 505 kts | 60° |
| 2026-04-23 18:34 | 40.52939 | 46.97913 | 34777 ft | 504 kts | 60° |
| 2026-04-23 18:35 | 40.56055 | 47.06133 | 34776 ft | 503 kts | 60° |
| 2026-04-23 18:35 | 40.58981 | 47.14469 | 34786 ft | 507 kts | 69° |
| 2026-04-23 18:36 | 40.60266 | 47.23623 | 34788 ft | 512 kts | 87° |
| 2026-04-23 18:36 | 40.60191 | 47.32970 | 34773 ft | 512 kts | 91° |
| 2026-04-23 18:37 | 40.59973 | 47.42331 | 34778 ft | 511 kts | 91° |
| 2026-04-23 18:37 | 40.59710 | 47.51631 | 34781 ft | 512 kts | 91° |
| 2026-04-23 18:38 | 40.59430 | 47.60957 | 34790 ft | 509 kts | 91° |
| 2026-04-23 18:38 | 40.59140 | 47.70293 | 34768 ft | 512 kts | 92° |
| 2026-04-23 18:39 | 40.58841 | 47.79646 | 34765 ft | 511 kts | 92° |
| 2026-04-23 18:39 | 40.58535 | 47.88984 | 34764 ft | 511 kts | 92° |
| 2026-04-23 18:40 | 40.58373 | 47.98302 | 34784 ft | 512 kts | 86° |
| 2026-04-23 18:40 | 40.58680 | 48.07643 | 34783 ft | 512 kts | 87° |
| 2026-04-23 18:41 | 40.58944 | 48.16987 | 34776 ft | 510 kts | 87° |
| 2026-04-23 18:41 | 40.59193 | 48.26277 | 34781 ft | 511 kts | 87° |
| 2026-04-23 18:42 | 40.59433 | 48.35586 | 34784 ft | 512 kts | 87° |
| 2026-04-23 18:42 | 40.59666 | 48.44967 | 34782 ft | 512 kts | 87° |
| 2026-04-23 18:43 | 40.59892 | 48.54326 | 34785 ft | 511 kts | 87° |
| 2026-04-23 18:43 | 40.60109 | 48.63653 | 34782 ft | 512 kts | 87° |
| 2026-04-23 18:44 | 40.60319 | 48.72992 | 34771 ft | 512 kts | 88° |
| 2026-04-23 18:44 | 40.60521 | 48.82359 | 34801 ft | 511 kts | 88° |
| 2026-04-23 18:45 | 40.60716 | 48.91670 | 34834 ft | 512 kts | 88° |
| 2026-04-23 18:45 | 40.60908 | 49.01255 | 34858 ft | 511 kts | 88° |
| 2026-04-23 18:46 | 40.61088 | 49.10568 | 34858 ft | 508 kts | 88° |
| 2026-04-23 18:46 | 40.61270 | 49.19839 | 34855 ft | 504 kts | 86° |
| 2026-04-23 18:47 | 40.61802 | 49.29005 | 34865 ft | 506 kts | 85° |
| 2026-04-23 18:47 | 40.62371 | 49.38760 | 34863 ft | 506 kts | 85° |
| 2026-04-23 18:48 | 40.62937 | 49.48722 | 34864 ft | 505 kts | 85° |
| 2026-04-23 18:48 | 40.63475 | 49.58319 | 34859 ft | 506 kts | 85° |
| 2026-04-23 18:49 | 40.63984 | 49.67573 | 34854 ft | 505 kts | 86° |
| 2026-04-23 18:49 | 40.64487 | 49.76829 | 34853 ft | 505 kts | 86° |
| 2026-04-23 18:50 | 40.64898 | 49.84491 | 34861 ft | 506 kts | 85° |
| 2026-04-23 18:50 | 40.65507 | 49.96031 | 34857 ft | 504 kts | 86° |
| 2026-04-23 18:51 | 40.66034 | 50.06211 | 34859 ft | 506 kts | 86° |
| 2026-04-23 18:51 | 40.66552 | 50.16415 | 34858 ft | 506 kts | 86° |
| 2026-04-23 18:52 | 40.67062 | 50.26610 | 34855 ft | 506 kts | 85° |
| 2026-04-23 18:52 | 40.67562 | 50.36783 | 34859 ft | 505 kts | 85° |
| 2026-04-23 18:53 | 40.68054 | 50.47010 | 34858 ft | 507 kts | 86° |
| 2026-04-23 18:53 | 40.68502 | 50.56481 | 34862 ft | 506 kts | 86° |
| 2026-04-23 18:54 | 40.68929 | 50.65704 | 34861 ft | 504 kts | 86° |
| 2026-04-23 18:54 | 40.69380 | 50.75553 | 34855 ft | 505 kts | 86° |
| 2026-04-23 18:55 | 40.69835 | 50.85737 | 34858 ft | 505 kts | 86° |
| 2026-04-23 18:55 | 40.70258 | 50.95366 | 34856 ft | 504 kts | 86° |
| 2026-04-23 18:56 | 40.70588 | 51.03013 | 34859 ft | 506 kts | 87° |
| 2026-04-23 18:56 | 40.71072 | 51.14453 | 34862 ft | 515 kts | 87° |
| 2026-04-23 18:57 | 40.71508 | 51.25014 | 34860 ft | 514 kts | 87° |
| 2026-04-23 18:57 | 40.71920 | 51.35209 | 34858 ft | 514 kts | 87° |
| 2026-04-23 18:58 | 40.72309 | 51.45027 | 34862 ft | 514 kts | 87° |
| 2026-04-23 18:58 | 40.73291 | 51.54558 | 34871 ft | 514 kts | 77° |
| 2026-04-23 18:59 | 40.74950 | 51.64669 | 34862 ft | 514 kts | 77° |
| 2026-04-23 18:59 | 40.76617 | 51.74850 | 34856 ft | 515 kts | 77° |
| 2026-04-23 19:00 | 40.78295 | 51.85133 | 34857 ft | 515 kts | 77° |
| 2026-04-23 19:00 | 40.79869 | 51.94827 | 34856 ft | 514 kts | 77° |
| 2026-04-23 19:01 | 40.81361 | 52.04069 | 34860 ft | 515 kts | 77° |
| 2026-04-23 19:01 | 40.82843 | 52.13296 | 34860 ft | 514 kts | 77° |
| 2026-04-23 19:02 | 40.84065 | 52.20947 | 34861 ft | 514 kts | 77° |
| 2026-04-23 19:02 | 40.85845 | 52.32146 | 34860 ft | 515 kts | 77° |
| 2026-04-23 19:03 | 40.87484 | 52.42528 | 34865 ft | 514 kts | 77° |
| 2026-04-23 19:03 | 40.89086 | 52.52737 | 34865 ft | 515 kts | 78° |
| 2026-04-23 19:04 | 40.90381 | 52.63215 | 34872 ft | 514 kts | 86° |
| 2026-04-23 19:04 | 40.90880 | 52.73657 | 34859 ft | 514 kts | 87° |
| 2026-04-23 19:05 | 40.91344 | 52.84174 | 34856 ft | 514 kts | 87° |
| 2026-04-23 19:05 | 40.91778 | 52.94438 | 34859 ft | 517 kts | 87° |
| 2026-04-23 19:06 | 40.92165 | 53.03859 | 34860 ft | 518 kts | 87° |
| 2026-04-23 19:06 | 40.92550 | 53.13460 | 34859 ft | 519 kts | 87° |
| 2026-04-23 19:07 | 40.92942 | 53.23694 | 34864 ft | 518 kts | 87° |
| 2026-04-23 19:07 | 40.93317 | 53.33757 | 34865 ft | 518 kts | 87° |
| 2026-04-23 19:08 | 40.93665 | 53.43265 | 34865 ft | 518 kts | 87° |
| 2026-04-23 19:08 | 40.94004 | 53.52759 | 34862 ft | 518 kts | 87° |
| 2026-04-23 19:09 | 40.94346 | 53.62566 | 34866 ft | 519 kts | 87° |
| 2026-04-23 19:09 | 40.94680 | 53.72374 | 34856 ft | 518 kts | 88° |
| 2026-04-23 19:10 | 40.94996 | 53.81879 | 34858 ft | 518 kts | 88° |
| 2026-04-23 19:10 | 40.95304 | 53.91417 | 34859 ft | 519 kts | 88° |
| 2026-04-23 19:11 | 40.95603 | 54.00922 | 34858 ft | 519 kts | 88° |
| 2026-04-23 19:11 | 40.95896 | 54.10458 | 34862 ft | 519 kts | 88° |
| 2026-04-23 19:12 | 40.96135 | 54.18422 | 34860 ft | 518 kts | 88° |
| 2026-04-23 19:12 | 40.96458 | 54.29548 | 34863 ft | 520 kts | 88° |
| 2026-04-23 19:13 | 40.96726 | 54.39060 | 34859 ft | 519 kts | 88° |
| 2026-04-23 19:13 | 40.96988 | 54.48598 | 34862 ft | 520 kts | 88° |
| 2026-04-23 19:14 | 40.97245 | 54.58266 | 34861 ft | 519 kts | 88° |
| 2026-04-23 19:14 | 40.97492 | 54.67874 | 34857 ft | 520 kts | 89° |
| 2026-04-23 19:15 | 40.97729 | 54.77390 | 34855 ft | 521 kts | 88° |
| 2026-04-23 19:15 | 40.97959 | 54.86933 | 34856 ft | 520 kts | 89° |
| 2026-04-23 19:16 | 40.98173 | 54.96464 | 34860 ft | 520 kts | 89° |
| 2026-04-23 19:16 | 40.98378 | 55.06060 | 34894 ft | 521 kts | 88° |
| 2026-04-23 19:17 | 40.98672 | 55.20412 | 34958 ft | 522 kts | 88° |
| 2026-04-23 19:17 | 40.98857 | 55.29987 | 34968 ft | 522 kts | 88° |
| 2026-04-23 19:18 | 40.99035 | 55.39567 | 34969 ft | 523 kts | 88° |
| 2026-04-23 19:18 | 40.99206 | 55.49197 | 34973 ft | 523 kts | 88° |
| 2026-04-23 19:19 | 40.99446 | 55.63596 | 34971 ft | 523 kts | 88° |
| 2026-04-23 19:20 | 40.99669 | 55.77963 | 34964 ft | 523 kts | 89° |
| 2026-04-23 19:20 | 40.99828 | 55.87601 | 34964 ft | 523 kts | 89° |
| 2026-04-23 19:21 | 41.00051 | 56.01994 | 34965 ft | 523 kts | 89° |
| 2026-04-23 19:22 | 41.00189 | 56.11583 | 34966 ft | 523 kts | 89° |
| 2026-04-23 19:22 | 41.00382 | 56.25966 | 34968 ft | 523 kts | 89° |
| 2026-04-23 19:23 | 41.00500 | 56.35596 | 34970 ft | 523 kts | 89° |
| 2026-04-23 19:24 | 41.00716 | 56.49970 | 34970 ft | 523 kts | 84° |
| 2026-04-23 19:24 | 41.02303 | 56.64231 | 34974 ft | 523 kts | 80° |
| 2026-04-23 19:25 | 41.04558 | 56.83315 | 34965 ft | 525 kts | 80° |
| 2026-04-23 19:26 | 41.06226 | 56.97551 | 34965 ft | 524 kts | 80° |
| 2026-04-23 19:27 | 41.08975 | 57.21361 | 34967 ft | 523 kts | 81° |
| 2026-04-23 19:28 | 41.11132 | 57.40375 | 34972 ft | 523 kts | 81° |
| 2026-04-23 19:29 | 41.12729 | 57.54634 | 34973 ft | 524 kts | 81° |
| 2026-04-23 19:30 | 41.14317 | 57.68965 | 34963 ft | 524 kts | 82° |
| 2026-04-23 19:31 | 41.15876 | 57.83231 | 34966 ft | 523 kts | 81° |
| 2026-04-23 19:31 | 41.16914 | 57.92808 | 34965 ft | 524 kts | 81° |
| 2026-04-23 19:32 | 41.17934 | 58.02303 | 34965 ft | 523 kts | 82° |
| 2026-04-23 19:32 | 41.18951 | 58.11846 | 34966 ft | 524 kts | 81° |
| 2026-04-23 19:33 | 41.19963 | 58.21401 | 34966 ft | 523 kts | 81° |
| 2026-04-23 19:33 | 41.21464 | 58.35713 | 34968 ft | 523 kts | 82° |
| 2026-04-23 19:34 | 41.22457 | 58.45289 | 34969 ft | 523 kts | 81° |
| 2026-04-23 19:35 | 41.23931 | 58.59652 | 34970 ft | 523 kts | 81° |
| 2026-04-23 19:35 | 41.24903 | 58.69214 | 34963 ft | 524 kts | 82° |
| 2026-04-23 19:36 | 41.25865 | 58.78763 | 34963 ft | 523 kts | 82° |
| 2026-04-23 19:36 | 41.26820 | 58.88342 | 34964 ft | 525 kts | 82° |
| 2026-04-23 19:37 | 41.27765 | 58.97899 | 34967 ft | 523 kts | 81° |
| 2026-04-23 19:37 | 41.28708 | 59.07502 | 34965 ft | 523 kts | 81° |
| 2026-04-23 19:38 | 41.29641 | 59.17068 | 34970 ft | 524 kts | 81° |
| 2026-04-23 19:38 | 41.30562 | 59.26615 | 34971 ft | 524 kts | 81° |
| 2026-04-23 19:39 | 41.31482 | 59.36250 | 34966 ft | 523 kts | 81° |
| 2026-04-23 19:39 | 41.32390 | 59.45831 | 34972 ft | 525 kts | 81° |
| 2026-04-23 19:40 | 41.33290 | 59.55422 | 34972 ft | 523 kts | 81° |
| 2026-04-23 19:40 | 41.34121 | 59.64968 | 34969 ft | 525 kts | 86° |
| 2026-04-23 19:41 | 41.33921 | 59.74681 | 34963 ft | 525 kts | 93° |
| 2026-04-23 19:41 | 41.33503 | 59.84389 | 34966 ft | 526 kts | 93° |
| 2026-04-23 19:42 | 41.33052 | 59.94066 | 34969 ft | 525 kts | 93° |
| 2026-04-23 19:42 | 41.32587 | 60.03694 | 34964 ft | 525 kts | 93° |
| 2026-04-23 19:43 | 41.32121 | 60.13415 | 34969 ft | 525 kts | 93° |
| 2026-04-23 19:43 | 41.31655 | 60.23061 | 34968 ft | 525 kts | 93° |
| 2026-04-23 19:44 | 41.31178 | 60.32737 | 34966 ft | 525 kts | 93° |
| 2026-04-23 19:44 | 41.30765 | 60.42374 | 34978 ft | 524 kts | 88° |
| 2026-04-23 19:45 | 41.31196 | 60.52019 | 34968 ft | 525 kts | 84° |
| 2026-04-23 19:45 | 41.31698 | 60.61710 | 34966 ft | 524 kts | 84° |
| 2026-04-23 19:46 | 41.32197 | 60.71323 | 34963 ft | 524 kts | 85° |
| 2026-04-23 19:46 | 41.32695 | 60.81018 | 34964 ft | 525 kts | 85° |
| 2026-04-23 19:47 | 41.33103 | 60.89077 | 34965 ft | 525 kts | 85° |
| 2026-04-23 19:47 | 41.33664 | 61.00332 | 34967 ft | 523 kts | 85° |
| 2026-04-23 19:48 | 41.34131 | 61.09927 | 34972 ft | 519 kts | 85° |
| 2026-04-23 19:48 | 41.34592 | 61.19478 | 34962 ft | 517 kts | 85° |
| 2026-04-23 19:49 | 41.35010 | 61.28350 | 34970 ft | 514 kts | 85° |
| 2026-04-23 19:49 | 41.35451 | 61.37807 | 34977 ft | 517 kts | 85° |
| 2026-04-23 19:50 | 41.35890 | 61.47366 | 34974 ft | 516 kts | 85° |
| 2026-04-23 19:50 | 41.36317 | 61.56819 | 34976 ft | 516 kts | 85° |
| 2026-04-23 19:51 | 41.36742 | 61.66360 | 34966 ft | 516 kts | 85° |
| 2026-04-23 19:51 | 41.37157 | 61.75912 | 34958 ft | 517 kts | 85° |
| 2026-04-23 19:52 | 41.37495 | 61.83850 | 34967 ft | 515 kts | 85° |
| 2026-04-23 19:52 | 41.37960 | 61.94910 | 34964 ft | 516 kts | 85° |
| 2026-04-23 19:53 | 41.38351 | 62.04420 | 34972 ft | 516 kts | 85° |
| 2026-04-23 19:53 | 41.38733 | 62.13905 | 34970 ft | 515 kts | 85° |
| 2026-04-23 19:54 | 41.39109 | 62.23455 | 34972 ft | 516 kts | 85° |
| 2026-04-23 19:54 | 41.39478 | 62.32980 | 34972 ft | 518 kts | 85° |
| 2026-04-23 19:55 | 41.39834 | 62.42458 | 34975 ft | 515 kts | 85° |
| 2026-04-23 19:55 | 41.40189 | 62.51971 | 34967 ft | 515 kts | 85° |
| 2026-04-23 19:56 | 41.40567 | 62.61530 | 34966 ft | 516 kts | 85° |
| 2026-04-23 19:56 | 41.40936 | 62.71055 | 34965 ft | 516 kts | 85° |
| 2026-04-23 19:57 | 41.41295 | 62.80573 | 34958 ft | 516 kts | 86° |
| 2026-04-23 19:57 | 41.41590 | 62.88537 | 34959 ft | 515 kts | 86° |
| 2026-04-23 19:58 | 41.41993 | 62.99586 | 34964 ft | 515 kts | 86° |
| 2026-04-23 19:58 | 41.42325 | 63.09088 | 34973 ft | 511 kts | 87° |
| 2026-04-23 19:59 | 41.42650 | 63.18520 | 34967 ft | 509 kts | 87° |
| 2026-04-23 19:59 | 41.42966 | 63.27931 | 34968 ft | 510 kts | 87° |
| 2026-04-23 20:00 | 41.43274 | 63.37324 | 34968 ft | 510 kts | 87° |
| 2026-04-23 20:00 | 41.43576 | 63.46730 | 34970 ft | 510 kts | 87° |
| 2026-04-23 20:01 | 41.43870 | 63.56158 | 34970 ft | 510 kts | 87° |
| 2026-04-23 20:01 | 41.44157 | 63.65597 | 34969 ft | 510 kts | 88° |
| 2026-04-23 20:02 | 41.44423 | 63.75028 | 34964 ft | 510 kts | 88° |
| 2026-04-23 20:02 | 41.44680 | 63.84433 | 34964 ft | 510 kts | 88° |
| 2026-04-23 20:03 | 41.44801 | 63.88971 | 34964 ft | 510 kts | 88° |
| 2026-04-23 20:05 | 41.44981 | 63.95849 | 34965 ft | 510 kts | 88° |
| 2026-04-23 20:05 | 41.45260 | 64.06846 | 34966 ft | 510 kts | 88° |
| 2026-04-23 20:06 | 41.45491 | 64.16292 | 34967 ft | 510 kts | 88° |
| 2026-04-23 20:06 | 41.45714 | 64.25697 | 34968 ft | 510 kts | 88° |
| 2026-04-23 20:07 | 41.45931 | 64.35174 | 34969 ft | 510 kts | 88° |
| 2026-04-23 20:07 | 41.46138 | 64.44583 | 34969 ft | 510 kts | 88° |
| 2026-04-23 20:08 | 41.46314 | 64.52841 | 34970 ft | 510 kts | 88° |
| 2026-04-23 20:08 | 41.46480 | 64.60888 | 34970 ft | 510 kts | 88° |
| 2026-04-23 20:09 | 41.46668 | 64.70342 | 34963 ft | 510 kts | 89° |
| 2026-04-23 20:09 | 41.46846 | 64.79760 | 34964 ft | 510 kts | 89° |
| 2026-04-23 20:10 | 41.46991 | 64.87637 | 34964 ft | 509 kts | 89° |
| 2026-04-23 20:10 | 41.47183 | 64.98573 | 34965 ft | 506 kts | 90° |
| 2026-04-23 20:11 | 41.47337 | 65.07892 | 34966 ft | 504 kts | 90° |
| 2026-04-23 20:11 | 41.47483 | 65.17267 | 34967 ft | 505 kts | 90° |
| 2026-04-23 20:12 | 41.47622 | 65.26580 | 34967 ft | 505 kts | 90° |
| 2026-04-23 20:12 | 41.47754 | 65.35944 | 34969 ft | 505 kts | 90° |
| 2026-04-23 20:13 | 41.47878 | 65.45290 | 34972 ft | 505 kts | 90° |
| 2026-04-23 20:13 | 41.47995 | 65.54607 | 34976 ft | 505 kts | 90° |
| 2026-04-23 20:14 | 41.48104 | 65.63930 | 34977 ft | 505 kts | 90° |
| 2026-04-23 20:14 | 41.48206 | 65.73298 | 34971 ft | 504 kts | 91° |
| 2026-04-23 20:15 | 41.48279 | 65.82629 | 34985 ft | 504 kts | 91° |
| 2026-04-23 20:15 | 41.48305 | 65.91918 | 34085 ft | 503 kts | 91° |
| 2026-04-23 20:15 | 41.48315 | 65.96582 | 33142 ft | 506 kts | 91° |
| 2026-04-23 20:16 | 41.48326 | 66.01154 | 33053 ft | 483 kts | 91° |
| 2026-04-23 20:16 | 41.48334 | 66.05566 | 32590 ft | 477 kts | 91° |
| 2026-04-23 20:16 | 41.48338 | 66.09998 | 31798 ft | 480 kts | 91° |
| 2026-04-23 20:16 | 41.48341 | 66.14415 | 31082 ft | 480 kts | 91° |
| 2026-04-23 20:17 | 41.48344 | 66.18796 | 30990 ft | 464 kts | 91° |
| 2026-04-23 20:17 | 41.48344 | 66.23033 | 30766 ft | 453 kts | 91° |
| 2026-04-23 20:17 | 41.48342 | 66.27246 | 30158 ft | 452 kts | 91° |
| 2026-04-23 20:18 | 41.48335 | 66.35468 | 30081 ft | 448 kts | 91° |
| 2026-04-23 20:18 | 41.48321 | 66.43938 | 30075 ft | 451 kts | 91° |
| 2026-04-23 20:19 | 41.48302 | 66.52361 | 30078 ft | 451 kts | 91° |
| 2026-04-23 20:19 | 41.48161 | 66.60695 | 30080 ft | 449 kts | 98° |
| 2026-04-23 20:20 | 41.47097 | 66.68839 | 29350 ft | 444 kts | 103° |
| 2026-04-23 20:20 | 41.46526 | 66.72866 | 28871 ft | 439 kts | 103° |
| 2026-04-23 20:20 | 41.45953 | 66.76843 | 28392 ft | 435 kts | 103° |
| 2026-04-23 20:20 | 41.45381 | 66.80782 | 27890 ft | 432 kts | 103° |
| 2026-04-23 20:21 | 41.44811 | 66.84694 | 27419 ft | 428 kts | 103° |
| 2026-04-23 20:21 | 41.44247 | 66.88539 | 26929 ft | 425 kts | 103° |
| 2026-04-23 20:21 | 41.43679 | 66.92404 | 26453 ft | 422 kts | 103° |
| 2026-04-23 20:21 | 41.43114 | 66.96233 | 25975 ft | 418 kts | 103° |
| 2026-04-23 20:22 | 41.42549 | 67.00056 | 25485 ft | 416 kts | 103° |
| 2026-04-23 20:22 | 41.41991 | 67.03820 | 25000 ft | 413 kts | 103° |
| 2026-04-23 20:22 | 41.41440 | 67.07528 | 24524 ft | 410 kts | 103° |
| 2026-04-23 20:22 | 41.40888 | 67.11237 | 24051 ft | 407 kts | 103° |
| 2026-04-23 20:23 | 41.40341 | 67.14899 | 23586 ft | 404 kts | 103° |
| 2026-04-23 20:23 | 41.39797 | 67.18538 | 23123 ft | 401 kts | 103° |
| 2026-04-23 20:23 | 41.39249 | 67.22193 | 22661 ft | 398 kts | 103° |
| 2026-04-23 20:23 | 41.38708 | 67.25787 | 22219 ft | 395 kts | 103° |
| 2026-04-23 20:24 | 41.38165 | 67.29395 | 21767 ft | 392 kts | 103° |
| 2026-04-23 20:24 | 41.37620 | 67.33003 | 21317 ft | 389 kts | 103° |
| 2026-04-23 20:24 | 41.37079 | 67.36581 | 20869 ft | 386 kts | 103° |
| 2026-04-23 20:24 | 41.36547 | 67.40089 | 20429 ft | 383 kts | 103° |
| 2026-04-23 20:25 | 41.36020 | 67.43556 | 19993 ft | 380 kts | 103° |
| 2026-04-23 20:25 | 41.35498 | 67.46987 | 19562 ft | 377 kts | 103° |
| 2026-04-23 20:25 | 41.34980 | 67.50380 | 19134 ft | 375 kts | 103° |
| 2026-04-23 20:25 | 41.34463 | 67.53760 | 18707 ft | 372 kts | 103° |
| 2026-04-23 20:26 | 41.33950 | 67.57107 | 18283 ft | 369 kts | 103° |
| 2026-04-23 20:26 | 41.33439 | 67.60438 | 17861 ft | 366 kts | 103° |
| 2026-04-23 20:26 | 41.32929 | 67.63753 | 17441 ft | 364 kts | 103° |
| 2026-04-23 20:26 | 41.32420 | 67.67055 | 17022 ft | 361 kts | 104° |
| 2026-04-23 20:27 | 41.31916 | 67.70315 | 16602 ft | 358 kts | 104° |
| 2026-04-23 20:27 | 41.31420 | 67.73521 | 16188 ft | 356 kts | 104° |
| 2026-04-23 20:27 | 41.30924 | 67.76719 | 15775 ft | 353 kts | 104° |
| 2026-04-23 20:27 | 41.30431 | 67.79890 | 15365 ft | 351 kts | 104° |
| 2026-04-23 20:28 | 41.29935 | 67.83076 | 14953 ft | 348 kts | 104° |
| 2026-04-23 20:28 | 41.29449 | 67.86192 | 14550 ft | 346 kts | 104° |
| 2026-04-23 20:28 | 41.28958 | 67.89336 | 14143 ft | 344 kts | 104° |
| 2026-04-23 20:28 | 41.28480 | 67.92439 | 13740 ft | 342 kts | 101° |
| 2026-04-23 20:29 | 41.28293 | 67.95559 | 13337 ft | 341 kts | 92° |
| 2026-04-23 20:29 | 41.28249 | 67.98695 | 12944 ft | 338 kts | 93° |
| 2026-04-23 20:29 | 41.28194 | 68.01815 | 12549 ft | 336 kts | 93° |
| 2026-04-23 20:29 | 41.28140 | 68.04882 | 12160 ft | 334 kts | 93° |
| 2026-04-23 20:30 | 41.28087 | 68.07966 | 11776 ft | 332 kts | 93° |
| 2026-04-23 20:30 | 41.27980 | 68.14021 | 11055 ft | 326 kts | 93° |
| 2026-04-23 20:30 | 41.27926 | 68.17028 | 10696 ft | 323 kts | 93° |
| 2026-04-23 20:31 | 41.27872 | 68.19966 | 10341 ft | 320 kts | 93° |
| 2026-04-23 20:31 | 41.27817 | 68.22922 | 10032 ft | 315 kts | 93° |
| 2026-04-23 20:31 | 41.27763 | 68.25776 | 9991 ft | 313 kts | 94° |
| 2026-04-23 20:31 | 41.27707 | 68.28695 | 9687 ft | 312 kts | 94° |
| 2026-04-23 20:32 | 41.27653 | 68.31520 | 9264 ft | 300 kts | 94° |
| 2026-04-23 20:32 | 41.27602 | 68.34245 | 8860 ft | 282 kts | 94° |
| 2026-04-23 20:32 | 41.27550 | 68.36813 | 8522 ft | 280 kts | 94° |
| 2026-04-23 20:32 | 41.27497 | 68.39410 | 8170 ft | 279 kts | 94° |
| 2026-04-23 20:33 | 41.27445 | 68.41964 | 7822 ft | 278 kts | 94° |
| 2026-04-23 20:33 | 41.27392 | 68.44539 | 7471 ft | 277 kts | 93° |
| 2026-04-23 20:33 | 41.27339 | 68.47073 | 7124 ft | 277 kts | 93° |
| 2026-04-23 20:33 | 41.27286 | 68.49625 | 6774 ft | 276 kts | 93° |
| 2026-04-23 20:34 | 41.27232 | 68.52163 | 6424 ft | 275 kts | 93° |
| 2026-04-23 20:34 | 41.27179 | 68.54675 | 6184 ft | 269 kts | 93° |
| 2026-04-23 20:34 | 41.27126 | 68.57137 | 6031 ft | 261 kts | 93° |
| 2026-04-23 20:34 | 41.27075 | 68.59510 | 5881 ft | 253 kts | 93° |
| 2026-04-23 20:35 | 41.27023 | 68.61849 | 5729 ft | 251 kts | 93° |
| 2026-04-23 20:35 | 41.26972 | 68.64145 | 5578 ft | 250 kts | 92° |
| 2026-04-23 20:35 | 41.26920 | 68.66467 | 5427 ft | 249 kts | 93° |
| 2026-04-23 20:35 | 41.26867 | 68.68776 | 5276 ft | 249 kts | 93° |
| 2026-04-23 20:36 | 41.26815 | 68.71056 | 5127 ft | 248 kts | 93° |
| 2026-04-23 20:36 | 41.26763 | 68.73340 | 4977 ft | 247 kts | 93° |
| 2026-04-23 20:36 | 41.26710 | 68.75610 | 4828 ft | 247 kts | 93° |
| 2026-04-23 20:36 | 41.26657 | 68.77887 | 4677 ft | 246 kts | 93° |
| 2026-04-23 20:37 | 41.26603 | 68.80177 | 4526 ft | 246 kts | 93° |
| 2026-04-23 20:37 | 41.26550 | 68.82413 | 4378 ft | 245 kts | 93° |
| 2026-04-23 20:37 | 41.26496 | 68.84654 | 4254 ft | 236 kts | 92° |
| 2026-04-23 20:37 | 41.26440 | 68.86795 | 4113 ft | 224 kts | 95° |
| 2026-04-23 20:38 | 41.26041 | 68.88728 | 4010 ft | 214 kts | 114° |
| 2026-04-23 20:38 | 41.25412 | 68.90552 | 4013 ft | 217 kts | 115° |
| 2026-04-23 20:38 | 41.24791 | 68.92362 | 4009 ft | 216 kts | 115° |
| 2026-04-23 20:38 | 41.24155 | 68.94190 | 4010 ft | 217 kts | 115° |
| 2026-04-23 20:39 | 41.23517 | 68.96013 | 4010 ft | 217 kts | 115° |
| 2026-04-23 20:39 | 41.22893 | 68.97793 | 4018 ft | 203 kts | 114° |
| 2026-04-23 20:39 | 41.22504 | 68.99472 | 3988 ft | 186 kts | 93° |
| 2026-04-23 20:39 | 41.22640 | 69.01189 | 3913 ft | 189 kts | 81° |
| 2026-04-23 20:40 | 41.22850 | 69.02840 | 3752 ft | 175 kts | 82° |
| 2026-04-23 20:40 | 41.23031 | 69.04450 | 3568 ft | 174 kts | 82° |
| 2026-04-23 20:40 | 41.23204 | 69.06038 | 3393 ft | 174 kts | 82° |
| 2026-04-23 20:40 | 41.23381 | 69.07625 | 3228 ft | 173 kts | 82° |
| 2026-04-23 20:41 | 41.23558 | 69.09199 | 3057 ft | 173 kts | 82° |
| 2026-04-23 20:41 | 41.23728 | 69.10714 | 2981 ft | 156 kts | 82° |
| 2026-04-23 20:41 | 41.23880 | 69.12069 | 2986 ft | 145 kts | 82° |
| 2026-04-23 20:41 | 41.24027 | 69.13400 | 3016 ft | 147 kts | 82° |
| 2026-04-23 20:42 | 41.24178 | 69.14745 | 3005 ft | 145 kts | 82° |
| 2026-04-23 20:42 | 41.24326 | 69.16077 | 2924 ft | 149 kts | 82° |
| 2026-04-23 20:42 | 41.24474 | 69.17415 | 2738 ft | 142 kts | 82° |
| 2026-04-23 20:42 | 41.24621 | 69.18729 | 2547 ft | 144 kts | 82° |
| 2026-04-23 20:43 | 41.24766 | 69.20040 | 2350 ft | 144 kts | 82° |
| 2026-04-23 20:43 | 41.24902 | 69.21358 | 2144 ft | 143 kts | 81° |
| 2026-04-23 20:43 | 41.25061 | 69.22664 | 1951 ft | 143 kts | 81° |
| 2026-04-23 20:43 | 41.25201 | 69.23977 | 1769 ft | 143 kts | 82° |
| 2026-04-23 20:44 | 41.25342 | 69.25281 | 1568 ft | 142 kts | 82° |
| 2026-04-23 20:44 | 41.25483 | 69.26566 | 1432 ft | 138 kts | 81° |
| 2026-04-23 20:44 | 41.25606 | 69.27666 | 1428 ft | 90 kts | 81° |
| 2026-04-23 20:44 | 41.25679 | 69.28333 | 1428 ft | 60 kts | 82° |
| 2026-04-23 20:45 | 41.25726 | 69.28766 | 1428 ft | 27 kts | 81° |
| 2026-04-23 20:45 | 41.25802 | 69.28900 | 1427 ft | 14 kts | 23° |
| 2026-04-23 20:45 | 41.25879 | 69.28938 | 1428 ft | 9 kts | 0° |
| 2026-04-23 20:45 | 41.25921 | 69.28888 | 1428 ft | 7 kts | 285° |
| 2026-04-23 20:46 | 41.25921 | 69.28822 | 1428 ft | 7 kts | 264° |
| 2026-04-23 20:46 | 41.25914 | 69.28747 | 1427 ft | 8 kts | 261° |
| 2026-04-23 20:46 | 41.25904 | 69.28663 | 1427 ft | 9 kts | 261° |
| 2026-04-23 20:46 | 41.25893 | 69.28569 | 1427 ft | 10 kts | 262° |
| 2026-04-23 20:47 | 41.25883 | 69.28466 | 1427 ft | 11 kts | 262° |
| 2026-04-23 20:47 | 41.25872 | 69.28354 | 1427 ft | 12 kts | 262° |
| 2026-04-23 20:47 | 41.25858 | 69.28232 | 1428 ft | 13 kts | 261° |
| 2026-04-23 20:47 | 41.25843 | 69.28104 | 1427 ft | 14 kts | 262° |
| 2026-04-23 20:48 | 41.25829 | 69.27967 | 1427 ft | 15 kts | 262° |
| 2026-04-23 20:48 | 41.25813 | 69.27824 | 1427 ft | 16 kts | 262° |
| 2026-04-23 20:48 | 41.25796 | 69.27673 | 1427 ft | 17 kts | 261° |
| 2026-04-23 20:48 | 41.25779 | 69.27512 | 1427 ft | 18 kts | 261° |
| 2026-04-23 20:49 | 41.25760 | 69.27342 | 1427 ft | 18 kts | 261° |
| 2026-04-23 20:49 | 41.25740 | 69.27164 | 1427 ft | 19 kts | 261° |
| 2026-04-23 20:49 | 41.25721 | 69.26997 | 1428 ft | 17 kts | 261° |
| 2026-04-23 20:49 | 41.25705 | 69.26850 | 1428 ft | 14 kts | 263° |
| 2026-04-23 20:50 | 41.25692 | 69.26724 | 1428 ft | 12 kts | 262° |
| 2026-04-23 20:50 | 41.25680 | 69.26610 | 1427 ft | 12 kts | 261° |
| 2026-04-23 20:50 | 41.25668 | 69.26489 | 1427 ft | 13 kts | 264° |
| 2026-04-23 20:50 | 41.25709 | 69.26401 | 1427 ft | 11 kts | 359° |
| 2026-04-23 20:51 | 41.25763 | 69.26437 | 1427 ft | 7 kts | 51° |
| 2026-04-23 20:51 | 41.25779 | 69.26478 | 1427 ft | 4 kts | 62° |
| 2026-04-23 20:51 | 41.25799 | 69.26531 | 1427 ft | 9 kts | 64° |
| 2026-04-23 20:51 | 41.25828 | 69.26615 | 1427 ft | 9 kts | 65° |
| 2026-04-23 20:52 | 41.25853 | 69.26688 | 1428 ft | 7 kts | 65° |
| 2026-04-23 20:52 | 41.25872 | 69.26747 | 1428 ft | 6 kts | 72° |
| 2026-04-23 20:52 | 41.25873 | 69.26802 | 1427 ft | 5 kts | 97° |
| 2026-04-23 20:52 | 41.25870 | 69.26851 | 1427 ft | 5 kts | 83° |
| 2026-04-23 20:53 | 41.25879 | 69.26891 | 1427 ft | 2 kts | 66° |
| 2026-04-23 20:53 | 41.25881 | 69.26899 | 1427 ft | 0 kts | 67° |